createdAt,value
2022-12-17T00:02:37.682Z,8.93
2022-12-17T00:05:24.011Z,10.17
2022-12-17T00:08:15.199Z,11.77
2022-12-17T00:11:00.959Z,13.37
2022-12-17T00:13:46.655Z,10.17
2022-12-17T00:16:33.608Z,9.83
2022-12-17T00:19:19.348Z,13.33
2022-12-17T00:22:05.035Z,10.90
2022-12-17T00:24:50.864Z,9.17
2022-12-17T00:27:37.457Z,11.03
2022-12-17T00:30:23.375Z,10.33
2022-12-17T00:33:11.469Z,11.67
2022-12-17T00:35:56.985Z,10.00
2022-12-17T00:38:42.675Z,10.87
2022-12-17T00:41:28.473Z,9.90
2022-12-17T00:44:14.216Z,10.30
2022-12-17T00:46:59.596Z,11.07
2022-12-17T00:49:46.896Z,10.73
2022-12-17T00:52:32.301Z,9.27
2022-12-17T00:55:17.846Z,11.33
2022-12-17T00:58:03.498Z,10.80
2022-12-17T01:00:49.253Z,10.97
2022-12-17T01:03:35.199Z,10.33
2022-12-17T01:06:22.569Z,10.77
2022-12-17T01:09:10.736Z,9.53
2022-12-17T01:11:56.522Z,10.10
2022-12-17T01:14:42.762Z,10.73
2022-12-17T01:17:37.087Z,10.00
2022-12-17T01:20:23.425Z,10.30
2022-12-17T01:23:10.768Z,10.97
2022-12-17T01:25:56.473Z,9.67
2022-12-17T01:28:43.098Z,11.60
2022-12-17T01:31:34.674Z,10.87
2022-12-17T01:34:21.152Z,12.50
2022-12-17T01:37:06.871Z,12.00
2022-12-17T01:39:53.997Z,11.10
2022-12-17T01:42:39.541Z,10.60
2022-12-17T01:45:34.608Z,9.90
2022-12-17T01:48:23.641Z,11.33
2022-12-17T01:51:13.341Z,10.10
2022-12-17T01:54:02.892Z,11.23
2022-12-17T01:56:51.505Z,11.80
2022-12-17T01:59:39.508Z,12.40
2022-12-17T02:02:25.270Z,10.80
2022-12-17T02:05:10.791Z,11.93
2022-12-17T02:08:09.441Z,17.50
2022-12-17T02:11:04.579Z,16.77
2022-12-17T02:13:55.862Z,10.77
2022-12-17T02:16:48.032Z,9.20
2022-12-17T02:19:47.991Z,7.80
2022-12-17T02:22:52.632Z,8.33
2022-12-17T02:25:49.284Z,9.07
2022-12-17T02:28:36.816Z,8.70
2022-12-17T02:31:23.445Z,8.67
2022-12-17T02:34:08.912Z,8.30
2022-12-17T02:36:51.153Z,7.30
2022-12-17T02:39:37.184Z,6.23
2022-12-17T02:42:24.342Z,6.50
2022-12-17T02:45:12.246Z,6.80
2022-12-17T02:47:58.183Z,6.73
2022-12-17T02:50:43.680Z,6.87
2022-12-17T02:53:29.114Z,7.10
2022-12-17T02:56:14.857Z,5.80
2022-12-17T02:59:14.965Z,6.00
2022-12-17T03:02:02.039Z,5.83
2022-12-17T03:04:47.974Z,6.50
2022-12-17T03:07:33.444Z,4.73
2022-12-17T03:10:24.480Z,9.30
2022-12-17T03:13:10.075Z,6.17
2022-12-17T03:15:55.886Z,5.80
2022-12-17T03:18:42.811Z,6.17
2022-12-17T03:21:28.306Z,5.60
2022-12-17T03:24:14.110Z,5.30
2022-12-17T03:26:59.800Z,5.57
2022-12-17T03:29:45.633Z,5.17
2022-12-17T03:32:31.385Z,4.83
2022-12-17T03:35:18.074Z,5.00
2022-12-17T03:38:03.453Z,4.80
2022-12-17T03:40:49.046Z,6.70
2022-12-17T03:43:32.402Z,7.00
2022-12-17T03:46:17.995Z,6.87
2022-12-17T03:49:03.554Z,8.00
2022-12-17T03:51:50.628Z,5.73
2022-12-17T03:54:36.030Z,7.40
2022-12-17T03:57:21.637Z,6.90
2022-12-17T04:00:15.590Z,7.67
2022-12-17T04:03:01.205Z,7.30
2022-12-17T04:05:46.870Z,8.23
2022-12-17T04:08:33.650Z,7.77
2022-12-17T04:11:19.099Z,7.77
2022-12-17T04:14:04.892Z,9.90
2022-12-17T04:16:51.596Z,7.80
2022-12-17T04:19:45.423Z,8.90
2022-12-17T04:22:30.918Z,7.87
2022-12-17T04:25:33.076Z,8.53
2022-12-17T04:28:18.621Z,6.70
2022-12-17T04:31:04.506Z,8.27
2022-12-17T04:33:50.111Z,8.80
2022-12-17T04:36:35.795Z,7.10
2022-12-17T04:39:21.724Z,8.10
2022-12-17T04:42:08.776Z,7.67
2022-12-17T04:44:54.181Z,8.67
2022-12-17T04:47:39.856Z,7.27
2022-12-17T04:50:25.874Z,8.20
2022-12-17T04:53:18.814Z,11.77
2022-12-17T04:56:04.552Z,11.07
2022-12-17T04:58:51.539Z,13.57
2022-12-17T05:01:37.098Z,13.00
2022-12-17T05:04:22.949Z,13.13
2022-12-17T05:07:08.601Z,11.60
2022-12-17T05:09:54.028Z,10.10
2022-12-17T05:12:39.595Z,11.07
2022-12-17T05:15:27.282Z,11.67
2022-12-17T05:18:12.790Z,13.43
2022-12-17T05:20:58.195Z,11.43
2022-12-17T05:23:43.970Z,12.27
2022-12-17T05:26:37.205Z,9.97
2022-12-17T05:29:22.652Z,8.57
2022-12-17T05:32:09.812Z,11.20
2022-12-17T05:34:55.564Z,11.90
2022-12-17T05:37:43.052Z,9.87
2022-12-17T05:40:29.594Z,10.67
2022-12-17T05:43:15.809Z,10.63
2022-12-17T05:46:03.989Z,10.50
2022-12-17T05:48:51.742Z,11.00
2022-12-17T05:51:39.083Z,9.23
2022-12-17T05:54:25.761Z,12.50
2022-12-17T05:57:11.553Z,14.00
2022-12-17T05:59:57.389Z,13.30
2022-12-17T06:02:43.466Z,12.97
2022-12-17T06:05:30.798Z,12.13
2022-12-17T06:08:21.991Z,12.60
2022-12-17T06:11:07.698Z,13.67
2022-12-17T06:13:53.511Z,14.67
2022-12-17T06:16:54.186Z,15.73
2022-12-17T06:19:39.659Z,15.90
2022-12-17T06:22:26.887Z,14.37
2022-12-17T06:25:12.396Z,11.40
2022-12-17T06:27:57.793Z,12.93
2022-12-17T06:30:48.909Z,12.37
2022-12-17T06:33:33.942Z,10.00
2022-12-17T06:36:31.021Z,9.43
2022-12-17T06:39:18.373Z,7.53
2022-12-17T06:42:04.971Z,7.67
2022-12-17T06:44:50.967Z,7.73
2022-12-17T06:47:36.769Z,8.97
2022-12-17T06:50:23.033Z,9.73
2022-12-17T06:53:18.014Z,9.20
2022-12-17T06:56:04.683Z,9.60
2022-12-17T06:58:50.422Z,10.43
2022-12-17T07:01:36.161Z,10.80
2022-12-17T07:04:22.088Z,9.00
2022-12-17T07:07:07.560Z,10.67
2022-12-17T07:09:53.240Z,10.97
2022-12-17T07:12:41.270Z,9.20
2022-12-17T07:15:27.399Z,7.60
2022-12-17T07:18:14.313Z,8.90
2022-12-17T07:21:00.217Z,8.60
2022-12-17T07:23:46.156Z,7.03
2022-12-17T07:26:31.889Z,6.97
2022-12-17T07:29:18.789Z,7.00
2022-12-17T07:32:04.898Z,10.57
2022-12-17T07:34:50.484Z,8.43
2022-12-17T07:37:35.913Z,8.90
2022-12-17T07:40:21.263Z,11.10
2022-12-17T07:43:06.731Z,14.67
2022-12-17T07:45:53.783Z,10.40
2022-12-17T07:48:39.624Z,9.80
2022-12-17T07:51:25.066Z,6.93
2022-12-17T07:54:10.294Z,4.67
2022-12-17T07:57:07.593Z,6.10
2022-12-17T07:59:53.015Z,4.60
2022-12-17T08:02:40.363Z,5.50
2022-12-17T08:05:26.435Z,5.60
2022-12-17T08:08:12.366Z,6.07
2022-12-17T08:10:57.854Z,6.43
2022-12-17T08:13:43.317Z,6.80
2022-12-17T08:16:28.989Z,7.10
2022-12-17T08:19:15.850Z,6.37
2022-12-17T08:22:01.625Z,7.67
2022-12-17T08:24:47.380Z,11.57
2022-12-17T08:27:32.971Z,15.40
2022-12-17T08:30:18.720Z,24.10
2022-12-17T08:33:04.546Z,16.40
2022-12-17T08:35:51.338Z,14.90
2022-12-17T08:38:36.835Z,10.37
2022-12-17T08:41:22.258Z,8.40
2022-12-17T08:44:07.685Z,8.90
2022-12-17T08:46:53.404Z,8.10
2022-12-17T08:49:50.309Z,7.97
2022-12-17T08:52:37.615Z,6.43
2022-12-17T08:55:24.104Z,9.77
2022-12-17T08:58:12.997Z,9.30
2022-12-17T09:00:58.835Z,7.97
2022-12-17T09:03:43.653Z,9.90
2022-12-17T09:06:29.152Z,8.80
2022-12-17T09:09:16.006Z,7.03
2022-12-17T09:12:02.098Z,6.60
2022-12-17T09:14:47.996Z,7.57
2022-12-17T09:17:33.377Z,8.60
2022-12-17T09:20:19.196Z,9.13
2022-12-17T09:23:04.821Z,9.20
2022-12-17T09:25:56.567Z,7.37
2022-12-17T09:28:43.783Z,6.80
2022-12-17T09:31:35.369Z,5.73
2022-12-17T09:34:22.864Z,5.23
2022-12-17T09:37:08.621Z,6.10
2022-12-17T09:39:54.019Z,5.23
2022-12-17T09:42:51.790Z,5.97
2022-12-17T09:45:47.739Z,5.27
2022-12-17T09:48:40.785Z,5.03
2022-12-17T09:51:39.696Z,5.07
2022-12-17T09:54:43.610Z,5.73
2022-12-17T09:57:32.404Z,5.00
2022-12-17T10:00:22.334Z,4.43
2022-12-17T10:03:10.804Z,4.90
2022-12-17T10:05:56.541Z,5.13
2022-12-17T10:08:42.132Z,5.00
2022-12-17T10:11:38.217Z,5.93
2022-12-17T10:14:34.086Z,5.70
2022-12-17T10:17:21.284Z,5.43
2022-12-17T10:20:10.937Z,5.53
2022-12-17T10:23:04.254Z,4.33
2022-12-17T10:25:51.137Z,4.07
2022-12-17T10:28:39.754Z,4.30
2022-12-17T10:31:28.796Z,4.03
2022-12-17T10:34:16.476Z,4.70
2022-12-17T10:37:07.631Z,5.13
2022-12-17T10:39:53.787Z,3.93
2022-12-17T10:42:42.097Z,6.20
2022-12-17T10:45:41.931Z,3.70
2022-12-17T10:48:39.255Z,4.50
2022-12-17T10:51:38.215Z,3.80
2022-12-17T10:54:29.201Z,4.37
2022-12-17T10:57:18.062Z,3.60
2022-12-17T11:00:03.948Z,3.90
2022-12-17T11:02:46.356Z,4.50
2022-12-17T11:05:33.394Z,3.63
2022-12-17T11:08:21.183Z,4.27
2022-12-17T11:11:08.293Z,3.40
2022-12-17T11:14:00.327Z,4.03
2022-12-17T11:16:51.971Z,3.77
2022-12-17T11:19:50.822Z,4.23
2022-12-17T11:22:50.122Z,4.23
2022-12-17T11:26:01.065Z,4.50
2022-12-17T11:28:49.109Z,3.70
2022-12-17T11:31:51.737Z,4.33
2022-12-17T11:34:59.269Z,2.70
2022-12-17T11:37:53.022Z,5.00
2022-12-17T11:40:46.555Z,3.20
2022-12-17T11:43:41.815Z,3.83
2022-12-17T11:46:50.103Z,3.47
2022-12-17T11:49:45.747Z,3.60
2022-12-17T11:52:41.472Z,3.60
2022-12-17T11:55:36.454Z,3.60
2022-12-17T11:58:25.471Z,3.47
2022-12-17T12:01:22.126Z,3.57
2022-12-17T12:04:17.640Z,4.23
2022-12-17T12:07:15.617Z,4.17
2022-12-17T12:10:09.204Z,4.50
2022-12-17T12:13:05.611Z,3.80
2022-12-17T12:16:03.251Z,3.87
2022-12-17T12:19:01.062Z,3.90
2022-12-17T12:21:57.327Z,4.27
2022-12-17T12:25:02.172Z,5.07
2022-12-17T12:27:54.808Z,5.17
2022-12-17T12:30:50.553Z,4.17
2022-12-17T12:33:46.670Z,5.80
2022-12-17T12:36:37.592Z,5.27
2022-12-17T12:39:25.544Z,5.77
2022-12-17T12:42:18.001Z,5.27
2022-12-17T12:45:12.357Z,5.47
2022-12-17T12:48:06.204Z,5.20
2022-12-17T12:51:04.238Z,6.73
2022-12-17T12:53:51.210Z,6.77
2022-12-17T12:56:48.210Z,6.93
2022-12-17T12:59:45.342Z,6.63
2022-12-17T13:02:50.487Z,6.20
2022-12-17T13:05:34.421Z,6.43
2022-12-17T13:08:04.650Z,7.80
2022-12-17T13:10:35.106Z,7.30
2022-12-17T13:13:14.634Z,7.93
2022-12-17T13:15:47.434Z,9.00
2022-12-17T13:18:25.862Z,9.57
2022-12-17T13:21:02.861Z,8.93
2022-12-17T13:23:34.409Z,8.03
2022-12-17T13:26:18.140Z,8.60
2022-12-17T13:29:02.036Z,9.50
2022-12-17T13:31:41.213Z,8.73
2022-12-17T13:34:17.313Z,9.60
2022-12-17T13:36:53.810Z,8.97
2022-12-17T13:39:34.075Z,7.97
2022-12-17T13:42:04.797Z,8.70
2022-12-17T13:44:40.290Z,8.60
2022-12-17T13:47:22.754Z,8.57
2022-12-17T13:50:31.617Z,8.80
2022-12-17T13:52:43.678Z,8.10
2022-12-17T13:55:21.144Z,9.10
2022-12-17T13:57:51.788Z,8.13
2022-12-17T14:00:23.151Z,8.70
2022-12-17T14:02:52.196Z,7.90
2022-12-17T14:05:27.711Z,8.57
2022-12-17T14:07:58.809Z,8.23
2022-12-17T14:10:27.270Z,9.40
2022-12-17T14:13:05.712Z,8.57
2022-12-17T14:15:34.367Z,8.90
2022-12-17T14:18:03.757Z,8.87
2022-12-17T14:20:34.723Z,8.60
2022-12-17T14:23:05.379Z,9.27
2022-12-17T14:25:38.066Z,9.70
2022-12-17T14:28:21.642Z,9.43
2022-12-17T14:31:24.830Z,8.27
2022-12-17T14:33:39.592Z,8.93
2022-12-17T14:36:10.075Z,7.97
2022-12-17T14:38:39.234Z,8.17
2022-12-17T14:41:27.143Z,8.80
2022-12-17T14:44:02.230Z,9.30
2022-12-17T14:46:32.521Z,9.80
2022-12-17T14:49:02.971Z,10.33
2022-12-17T14:51:34.374Z,9.63
2022-12-17T14:54:22.503Z,11.47
2022-12-17T14:56:51.283Z,11.23
2022-12-17T14:59:32.498Z,11.70
2022-12-17T15:02:03.761Z,11.70
2022-12-17T15:04:33.268Z,11.53
2022-12-17T15:07:01.433Z,11.33
2022-12-17T15:09:29.538Z,12.27
2022-12-17T15:11:57.771Z,12.37
2022-12-17T15:14:27.327Z,12.30
2022-12-17T15:16:57.024Z,12.67
2022-12-17T15:19:25.309Z,12.67
2022-12-17T15:21:53.497Z,12.27
2022-12-17T15:24:22.485Z,11.90
2022-12-17T15:26:51.023Z,11.10
2022-12-17T15:29:19.343Z,11.63
2022-12-17T15:31:49.163Z,11.30
2022-12-17T15:34:17.317Z,11.57
2022-12-17T15:36:45.418Z,12.57
2022-12-17T15:39:13.838Z,12.60
2022-12-17T15:41:59.784Z,12.17
2022-12-17T15:44:28.368Z,10.60
2022-12-17T15:46:57.966Z,11.70
2022-12-17T15:49:26.093Z,13.80
2022-12-17T15:51:54.257Z,15.63
2022-12-17T15:54:22.460Z,14.67
2022-12-17T15:56:54.861Z,13.17
2022-12-17T15:59:23.483Z,13.37
2022-12-17T16:01:51.884Z,12.37
2022-12-17T16:04:25.237Z,13.00
2022-12-17T16:06:54.017Z,11.67
2022-12-17T16:09:24.644Z,11.87
2022-12-17T16:11:55.598Z,11.17
2022-12-17T16:14:24.294Z,10.50
2022-12-17T16:16:52.899Z,12.40
2022-12-17T16:19:23.695Z,11.40
2022-12-17T16:21:52.115Z,13.57
2022-12-17T16:24:21.212Z,12.00
2022-12-17T16:26:49.465Z,11.87
2022-12-17T16:29:17.725Z,11.80
2022-12-17T16:31:46.262Z,11.70
2022-12-17T16:34:15.687Z,11.40
2022-12-17T16:36:45.339Z,11.07
2022-12-17T16:39:17.509Z,10.70
2022-12-17T16:41:46.030Z,10.77
2022-12-17T16:44:14.426Z,10.13
2022-12-17T16:46:44.284Z,10.83
2022-12-17T16:49:15.580Z,9.60
2022-12-17T16:51:46.283Z,11.87
2022-12-17T16:54:17.032Z,9.77
2022-12-17T16:56:46.798Z,9.60
2022-12-17T16:59:16.520Z,9.83
2022-12-17T17:01:46.696Z,10.10
2022-12-17T17:04:16.502Z,8.80
2022-12-17T17:06:48.399Z,9.10
2022-12-17T17:09:17.611Z,10.20
2022-12-17T17:11:51.176Z,8.70
2022-12-17T17:14:21.433Z,9.87
2022-12-17T17:16:49.748Z,7.80
2022-12-17T17:19:18.501Z,6.93
2022-12-17T17:21:52.826Z,7.23
2022-12-17T17:24:24.166Z,6.73
2022-12-17T17:26:53.373Z,5.70
2022-12-17T17:29:21.554Z,5.37
2022-12-17T17:34:38.263Z,4.33
2022-12-17T17:37:08.131Z,4.03
2022-12-17T17:39:36.306Z,3.67
2022-12-17T17:42:04.818Z,3.70
2022-12-17T17:44:33.301Z,4.17
2022-12-17T17:47:01.688Z,6.57
2022-12-17T17:49:30.095Z,5.60
2022-12-17T17:52:13.836Z,5.00
2022-12-17T17:54:43.466Z,4.23
2022-12-17T17:57:12.059Z,3.87
2022-12-17T17:59:40.761Z,3.70
2022-12-17T18:02:10.899Z,3.37
2022-12-17T18:04:40.087Z,3.07
2022-12-17T18:07:24.724Z,3.90
2022-12-17T18:09:55.132Z,3.57
2022-12-17T18:12:41.483Z,3.67
2022-12-17T18:15:15.382Z,2.90
2022-12-17T18:17:45.179Z,2.70
2022-12-17T18:20:14.063Z,3.50
2022-12-17T18:22:42.322Z,3.17
2022-12-17T18:25:11.861Z,3.37
2022-12-17T18:27:40.162Z,3.30
2022-12-17T18:30:09.458Z,3.50
2022-12-17T18:32:37.560Z,3.97
2022-12-17T18:35:06.443Z,3.83
2022-12-17T18:37:34.668Z,4.03
2022-12-17T18:40:03.061Z,3.27
2022-12-17T18:42:50.331Z,3.63
2022-12-17T18:45:18.583Z,3.43
2022-12-17T18:47:46.882Z,4.07
2022-12-17T18:50:15.163Z,3.53
2022-12-17T18:52:43.364Z,3.70
2022-12-17T18:55:34.999Z,3.40
2022-12-17T18:58:04.719Z,3.67
2022-12-17T19:00:33.022Z,5.03
2022-12-17T19:03:05.836Z,4.77
2022-12-17T19:05:34.405Z,4.90
2022-12-17T19:08:02.767Z,4.47
2022-12-17T19:10:30.898Z,3.80
2022-12-17T19:12:59.633Z,3.80
2022-12-17T19:15:29.347Z,3.70
2022-12-17T19:17:57.663Z,2.83
2022-12-17T19:20:25.764Z,3.60
2022-12-17T19:22:55.094Z,3.90
2022-12-17T19:25:23.616Z,3.13
2022-12-17T19:27:51.910Z,3.87
2022-12-17T19:30:23.337Z,4.80
2022-12-17T19:32:53.814Z,5.97
2022-12-17T19:35:22.155Z,4.80
2022-12-17T19:37:53.234Z,4.90
2022-12-17T19:40:21.772Z,5.20
2022-12-17T19:42:50.706Z,5.27
2022-12-17T19:45:19.118Z,5.30
2022-12-17T19:47:47.588Z,3.60
2022-12-17T19:50:23.177Z,3.30
2022-12-17T19:52:51.451Z,3.40
2022-12-17T19:55:21.564Z,3.30
2022-12-17T19:57:49.920Z,2.97
2022-12-17T20:00:19.521Z,3.23
2022-12-17T20:02:47.797Z,3.60
2022-12-17T20:05:16.101Z,4.30
2022-12-17T20:07:45.700Z,4.57
2022-12-17T20:10:13.869Z,4.53
2022-12-17T20:12:42.055Z,3.80
2022-12-17T20:15:10.833Z,4.50
2022-12-17T20:17:38.973Z,6.00
2022-12-17T20:20:08.275Z,5.23
2022-12-17T20:22:36.669Z,5.53
2022-12-17T20:25:09.698Z,5.03
2022-12-17T20:27:37.877Z,5.07
2022-12-17T20:30:07.525Z,4.70
2022-12-17T20:32:35.766Z,5.00
2022-12-17T20:35:04.007Z,5.50
2022-12-17T20:37:32.183Z,4.23
2022-12-17T20:40:00.411Z,5.30
2022-12-17T20:42:31.108Z,4.17
2022-12-17T20:44:59.204Z,5.20
2022-12-17T20:47:27.597Z,4.20
2022-12-17T20:49:55.786Z,5.00
2022-12-17T20:52:23.971Z,4.57
2022-12-17T20:54:52.789Z,4.83
2022-12-17T20:57:21.001Z,5.47
2022-12-17T20:59:51.786Z,4.90
2022-12-17T21:02:20.051Z,4.83
2022-12-17T21:04:49.733Z,4.70
2022-12-17T21:07:18.114Z,4.67
2022-12-17T21:09:46.316Z,4.83
2022-12-17T21:12:14.545Z,4.23
2022-12-17T21:14:42.819Z,4.60
2022-12-17T21:17:14.620Z,4.60
2022-12-17T21:19:42.956Z,4.27
2022-12-17T21:22:11.195Z,6.00
2022-12-17T21:24:39.536Z,4.00
2022-12-17T21:27:14.281Z,4.27
2022-12-17T21:29:42.927Z,4.23
2022-12-17T21:32:12.448Z,4.63
2022-12-17T21:34:41.007Z,3.97
2022-12-17T21:37:11.430Z,4.57
2022-12-17T21:39:39.733Z,4.03
2022-12-17T21:42:25.555Z,4.47
2022-12-17T21:44:53.683Z,5.13
2022-12-17T21:47:23.953Z,4.30
2022-12-17T21:49:52.159Z,4.77
2022-12-17T21:52:20.306Z,4.07
2022-12-17T21:54:48.628Z,4.83
2022-12-17T21:57:16.791Z,4.30
2022-12-17T21:59:44.947Z,4.30
2022-12-17T22:02:13.156Z,3.73
2022-12-17T22:04:43.115Z,3.30
2022-12-17T22:07:12.225Z,3.40
2022-12-17T22:09:53.731Z,4.03
2022-12-17T22:12:46.645Z,3.17
2022-12-17T22:15:14.731Z,3.60
2022-12-17T22:17:43.651Z,3.60
2022-12-17T22:20:13.764Z,3.70
2022-12-17T22:22:42.130Z,3.73
2022-12-17T22:25:11.511Z,3.73
2022-12-17T22:27:41.007Z,3.83
2022-12-17T22:30:31.360Z,3.73
2022-12-17T22:33:02.551Z,3.50
2022-12-17T22:36:51.226Z,3.60
2022-12-17T22:41:22.248Z,3.83
2022-12-17T22:44:42.605Z,3.67
2022-12-17T22:44:43.455Z,3.30
2022-12-17T22:47:09.862Z,3.60
2022-12-17T22:49:40.963Z,4.07
2022-12-17T22:52:13.455Z,3.40
2022-12-17T22:54:43.795Z,3.53
2022-12-17T22:57:35.102Z,3.50
2022-12-17T23:00:00.132Z,3.07
2022-12-17T23:02:28.309Z,2.90
2022-12-17T23:04:56.458Z,3.07
2022-12-17T23:07:31.564Z,3.50
2022-12-17T23:10:00.213Z,4.07
2022-12-17T23:12:46.101Z,4.13
2022-12-17T23:15:14.333Z,3.77
2022-12-17T23:17:42.535Z,4.00
2022-12-17T23:20:12.044Z,3.70
2022-12-17T23:22:41.882Z,3.70
2022-12-17T23:25:11.385Z,3.50
2022-12-17T23:27:39.760Z,4.00
2022-12-17T23:30:09.650Z,3.77
2022-12-17T23:32:38.808Z,3.60
2022-12-17T23:35:08.388Z,3.83
2022-12-17T23:37:40.198Z,3.50
2022-12-17T23:40:12.303Z,4.20
2022-12-17T23:42:40.940Z,4.13
2022-12-17T23:45:11.549Z,3.87
2022-12-17T23:47:40.580Z,3.57
2022-12-17T23:50:11.714Z,3.20
2022-12-17T23:52:40.405Z,4.33
2022-12-17T23:55:11.678Z,3.13
2022-12-17T23:57:40.581Z,3.80
